Time;durP1;ratioP1;P1;durP2;ratioP2;P2;SDS_P1;SDS_P2;PMS_P1;PMS_P2;Temp;Humidity;BMP_temperature;BMP_pressure;BME280_temperature;BME280_humidity;BME280_pressure;Samples;Min_cycle;Max_cycle;Signal;HPM_P1;HPM_P2
2022/11/27 00:01:19;;;;;;;27.20;10.48;;;6.40;95.40;;;;;;5092723;27;20394;-91
2022/11/27 00:03:45;;;;;;;31.63;10.82;;;6.30;95.30;;;;;;5094613;27;20402;-89
2022/11/27 00:06:14;;;;;;;21.80;8.90;;;6.30;95.30;;;;;;5110163;27;20796;-92
2022/11/27 00:08:41;;;;;;;25.95;8.80;;;6.30;95.30;;;;;;5128404;27;20395;-90
2022/11/27 00:11:08;;;;;;;25.75;9.27;;;6.30;95.30;;;;;;5111023;27;20403;-89
2022/11/27 00:13:35;;;;;;;26.15;10.32;;;6.30;95.20;;;;;;5109334;27;20419;-90
2022/11/27 00:16:00;;;;;;;25.20;10.02;;;6.30;95.20;;;;;;5094962;27;21179;-89
2022/11/27 00:18:26;;;;;;;23.25;9.82;;;6.30;95.20;;;;;;5109032;27;20414;-91
2022/11/27 00:20:51;;;;;;;24.65;9.88;;;6.30;95.20;;;;;;5112075;27;20399;-89
2022/11/27 00:23:17;;;;;;;27.27;10.70;;;6.20;95.10;;;;;;5092623;27;20421;-89
2022/11/27 00:25:51;;;;;;;24.42;9.00;;;6.30;95.20;;;;;;5111240;27;20409;-90
2022/11/27 00:28:17;;;;;;;25.33;9.77;;;6.30;95.20;;;;;;5094135;27;20402;-90
2022/11/27 00:30:42;;;;;;;29.35;10.18;;;6.40;95.20;;;;;;5109944;27;20437;-90
2022/11/27 00:33:08;;;;;;;25.50;8.55;;;6.60;95.20;;;;;;5110388;27;20395;-91
2022/11/27 00:35:33;;;;;;;24.17;9.07;;;6.40;95.10;;;;;;5109117;27;20409;-89
2022/11/27 00:37:59;;;;;;;21.60;9.23;;;6.50;95.20;;;;;;5094559;27;20409;-90
2022/11/27 00:40:24;;;;;;;25.20;9.05;;;6.20;95.10;;;;;;5108644;27;20401;-90
2022/11/27 00:42:50;;;;;;;23.77;9.80;;;6.20;95.10;;;;;;5111064;27;20411;-90
2022/11/27 00:45:16;;;;;;;24.98;8.95;;;6.50;95.20;;;;;;5109526;27;20939;-89
2022/11/27 00:47:41;;;;;;;24.67;9.80;;;6.20;95.10;;;;;;5093463;27;20494;-91
2022/11/27 00:50:07;;;;;;;23.80;9.80;;;6.10;95.10;;;;;;5111046;27;20410;-90
2022/11/27 00:52:33;;;;;;;23.75;8.52;;;6.10;94.90;;;;;;5091815;27;20430;-90
2022/11/27 00:54:58;;;;;;;23.20;8.48;;;6.10;95.00;;;;;;5093788;27;20430;-90
2022/11/27 00:57:24;;;;;;;23.77;8.67;;;6.10;94.90;;;;;;5091826;27;20414;-90
2022/11/27 00:59:50;;;;;;;21.23;7.88;;;6.10;94.90;;;;;;5111272;27;20406;-91
2022/11/27 01:02:16;;;;;;;20.80;8.35;;;6.00;94.90;;;;;;5091645;27;20391;-90
2022/11/27 01:04:45;;;;;;;21.92;7.63;;;6.00;95.00;;;;;;5093691;27;20407;-90
2022/11/27 01:07:11;;;;;;;23.13;8.00;;;6.00;95.00;;;;;;5093098;27;20442;-90
2022/11/27 01:09:37;;;;;;;25.75;8.85;;;6.30;95.10;;;;;;5109275;27;20442;-91
2022/11/27 01:12:03;;;;;;;21.13;8.70;;;6.00;95.00;;;;;;5092247;27;20511;-90
2022/11/27 01:14:28;;;;;;;23.73;8.50;;;5.70;94.90;;;;;;5091360;27;20418;-88
2022/11/27 01:16:54;;;;;;;21.57;7.87;;;5.90;95.00;;;;;;5110533;27;20461;-90
2022/11/27 01:19:20;;;;;;;22.50;8.13;;;5.90;95.10;;;;;;5091026;27;20403;-91
2022/11/27 01:21:46;;;;;;;21.77;8.45;;;5.90;94.90;;;;;;5110523;27;20401;-88
2022/11/27 01:24:13;;;;;;;25.13;9.48;;;5.90;94.90;;;;;;5092183;27;20395;-89
2022/11/27 01:26:39;;;;;;;21.50;8.35;;;5.90;94.90;;;;;;5092813;27;20390;-90
2022/11/27 01:29:05;;;;;;;22.48;8.30;;;5.90;95.00;;;;;;5110576;27;20426;-91
2022/11/27 01:31:32;;;;;;;20.13;8.32;;;5.80;95.00;;;;;;5091391;27;21474;-90
2022/11/27 01:34:06;;;;;;;22.10;9.05;;;5.80;95.00;;;;;;5110449;27;20801;-90
2022/11/27 01:36:33;;;;;;;21.63;8.25;;;5.80;95.00;;;;;;5091083;28;21128;-90
2022/11/27 01:38:59;;;;;;;19.52;7.72;;;5.80;95.10;;;;;;5093531;27;21134;-92
2022/11/27 01:41:31;;;;;;;24.95;8.27;;;5.90;95.10;;;;;;5091873;27;20399;-90
2022/11/27 01:44:02;;;;;;;21.15;8.07;;;5.90;95.10;;;;;;5091858;27;20411;-88
2022/11/27 01:46:42;;;;;;;22.52;8.43;;;5.90;95.00;;;;;;5092959;27;20536;-91
2022/11/27 01:49:07;;;;;;;21.27;7.78;;;5.90;95.00;;;;;;5108084;27;20422;-91
2022/11/27 01:51:36;;;;;;;19.77;7.57;;;6.00;95.10;;;;;;5093018;28;20406;-89
2022/11/27 01:54:02;;;;;;;19.67;7.63;;;6.00;95.10;;;;;;5090424;28;20419;-90
2022/11/27 01:56:29;;;;;;;18.43;7.50;;;6.00;95.00;;;;;;5092588;28;20402;-90
2022/11/27 01:58:57;;;;;;;19.30;7.53;;;6.10;95.00;;;;;;5108623;28;20403;-89
2022/11/27 02:01:24;;;;;;;17.83;6.95;;;6.10;94.90;;;;;;5091863;28;20403;-90
2022/11/27 02:03:56;;;;;;;23.25;8.70;;;6.10;94.90;;;;;;5092772;28;20417;-89
2022/11/27 02:06:23;;;;;;;18.80;7.68;;;6.20;94.90;;;;;;5090152;28;20395;-89
2022/11/27 02:08:48;;;;;;;19.15;7.43;;;6.20;94.90;;;;;;5109957;28;20908;-90
2022/11/27 02:11:38;;;;;;;20.33;8.48;;;6.30;94.90;;;;;;5090750;28;20407;-90
2022/11/27 02:14:14;;;;;;;17.08;7.30;;;6.30;94.80;;;;;;5092489;28;20525;-91
2022/11/27 02:16:58;;;;;;;18.77;7.90;;;6.30;94.70;;;;;;5092315;28;20479;-91
2022/11/27 02:19:41;;;;;;;15.82;6.47;;;6.30;94.70;;;;;;5107408;28;20471;-90
2022/11/27 02:22:56;;;;;;;19.33;7.10;;;6.30;94.80;;;;;;5110229;27;20984;-91
2022/11/27 02:25:34;;;;;;;20.02;7.35;;;6.30;94.50;;;;;;5113454;27;20455;-89
2022/11/27 02:28:18;;;;;;;15.63;6.78;;;6.30;94.50;;;;;;5094302;27;20407;-91
2022/11/27 02:30:50;;;;;;;17.65;7.70;;;6.20;94.50;;;;;;5096716;27;20422;-89
2022/11/27 02:33:19;;;;;;;17.60;7.93;;;6.30;94.40;;;;;;5094382;27;20482;-89
2022/11/27 02:35:48;;;;;;;16.02;6.70;;;6.60;94.50;;;;;;5113028;27;20487;-89
2022/11/27 02:38:35;;;;;;;17.57;7.47;;;6.30;94.40;;;;;;5095894;27;20456;-90
2022/11/27 02:41:01;;;;;;;17.20;7.27;;;6.30;94.40;;;;;;5111171;27;20438;-89
2022/11/27 02:43:35;;;;;;;16.63;7.13;;;6.30;94.40;;;;;;5096411;27;20488;-89
2022/11/27 02:46:02;;;;;;;13.60;6.70;;;6.30;94.40;;;;;;5094385;27;20391;-90
2022/11/27 02:48:52;;;;;;;17.00;6.90;;;6.20;94.30;;;;;;5113489;27;20753;-90
2022/11/27 02:51:36;;;;;;;18.58;7.35;;;6.30;94.20;;;;;;5096646;27;20411;-89
2022/11/27 02:54:06;;;;;;;15.75;6.85;;;6.30;94.20;;;;;;5111332;27;20457;-90
2022/11/27 02:56:33;;;;;;;18.90;8.40;;;6.30;94.20;;;;;;5113309;27;20410;-90
2022/11/27 02:59:03;;;;;;;17.35;7.18;;;6.30;94.30;;;;;;5093931;27;20405;-89
2022/11/27 03:01:33;;;;;;;16.52;7.22;;;6.30;94.20;;;;;;5095745;27;20401;-88
2022/11/27 03:04:01;;;;;;;17.13;7.22;;;6.30;94.10;;;;;;5095075;27;20872;-90
2022/11/27 03:06:35;;;;;;;15.18;7.07;;;6.30;94.10;;;;;;5094647;27;20407;-90
2022/11/27 03:09:08;;;;;;;13.30;6.75;;;6.30;94.10;;;;;;5113179;27;20740;-90
2022/11/27 03:11:35;;;;;;;16.80;7.60;;;6.30;94.00;;;;;;5093679;27;20394;-91
2022/11/27 03:14:06;;;;;;;17.58;6.78;;;6.30;94.00;;;;;;5095847;27;20414;-89
2022/11/27 03:17:04;;;;;;;19.33;8.10;;;6.30;93.90;;;;;;5111201;27;20437;-91
2022/11/27 03:19:35;;;;;;;17.05;7.18;;;6.30;94.00;;;;;;5094295;27;20410;-89
2022/11/27 03:22:02;;;;;;;13.33;7.43;;;6.30;93.80;;;;;;5096015;27;20408;-89
2022/11/27 03:24:31;;;;;;;17.90;8.07;;;6.30;93.80;;;;;;5093557;27;20900;-90
2022/11/27 03:26:57;;;;;;;18.80;8.05;;;6.30;93.80;;;;;;5095905;27;20383;-92
2022/11/27 03:29:59;;;;;;;19.05;7.78;;;6.30;93.80;;;;;;5093642;27;20399;-90
2022/11/27 03:32:27;;;;;;;18.77;7.75;;;6.30;93.70;;;;;;5093665;27;20406;-90
2022/11/27 03:34:53;;;;;;;15.73;7.90;;;6.30;93.60;;;;;;5094450;27;20446;-91
2022/11/27 03:37:20;;;;;;;14.45;7.25;;;6.30;93.60;;;;;;5093459;27;20402;-90
2022/11/27 03:39:46;;;;;;;16.50;7.40;;;6.50;93.60;;;;;;5095673;27;20463;-91
2022/11/27 03:42:28;;;;;;;16.92;7.65;;;6.20;93.50;;;;;;5110121;27;20407;-91
2022/11/27 03:45:18;;;;;;;16.60;7.90;;;6.20;93.40;;;;;;5095148;27;20457;-89
2022/11/27 03:48:02;;;;;;;15.35;8.30;;;6.30;93.40;;;;;;5095477;27;20407;-91
2022/11/27 03:51:05;;;;;;;17.58;8.48;;;6.20;93.40;;;;;;5110159;27;20403;-90
2022/11/27 03:53:52;;;;;;;17.10;8.45;;;6.20;93.40;;;;;;5094848;27;20502;-90
2022/11/27 03:56:30;;;;;;;16.38;7.45;;;6.20;93.40;;;;;;5112310;27;20406;-89
2022/11/27 03:59:02;;;;;;;17.13;8.48;;;6.20;93.30;;;;;;5093335;27;20936;-92
2022/11/27 04:01:29;;;;;;;14.13;8.00;;;6.30;93.40;;;;;;5095758;27;20442;-93
2022/11/27 04:03:55;;;;;;;15.13;7.50;;;6.30;93.30;;;;;;5109911;27;20471;-90
2022/11/27 04:06:21;;;;;;;13.97;8.03;;;6.30;93.20;;;;;;5111847;27;20749;-91
2022/11/27 04:08:47;;;;;;;18.85;8.13;;;6.30;93.20;;;;;;5110518;27;20448;-91
2022/11/27 04:11:13;;;;;;;17.25;8.23;;;6.30;93.10;;;;;;5093998;27;20422;-90
2022/11/27 04:13:39;;;;;;;15.93;7.97;;;6.30;93.10;;;;;;5111324;27;20422;-90
2022/11/27 04:16:05;;;;;;;16.85;7.70;;;6.20;93.10;;;;;;5109683;27;20486;-90
2022/11/27 04:18:30;;;;;;;15.60;7.38;;;6.20;93.10;;;;;;5094731;27;20418;-92
2022/11/27 04:20:57;;;;;;;16.83;8.13;;;6.30;93.10;;;;;;5092526;27;20395;-90
2022/11/27 04:23:22;;;;;;;16.88;8.05;;;6.30;93.10;;;;;;5095166;27;20442;-90
2022/11/27 04:25:48;;;;;;;15.43;8.13;;;6.30;93.10;;;;;;5093239;27;20760;-89
2022/11/27 04:28:16;;;;;;;17.30;7.63;;;6.30;93.00;;;;;;5093959;27;20931;-91
2022/11/27 04:30:42;;;;;;;17.13;7.50;;;6.30;93.00;;;;;;5111645;27;20399;-91
2022/11/27 04:33:08;;;;;;;14.48;7.50;;;6.30;92.90;;;;;;5092200;27;20514;-89
2022/11/27 04:35:33;;;;;;;14.60;7.28;;;6.30;92.90;;;;;;5094349;27;20915;-87
2022/11/27 04:37:59;;;;;;;18.07;7.27;;;6.20;92.90;;;;;;5092013;27;20406;-91
2022/11/27 04:40:24;;;;;;;11.63;6.15;;;6.20;92.90;;;;;;5111277;27;20761;-88
2022/11/27 04:42:50;;;;;;;16.25;6.95;;;6.20;92.70;;;;;;5108996;27;20440;-89
2022/11/27 04:45:16;;;;;;;13.60;6.50;;;6.20;92.70;;;;;;5093922;27;20411;-89
2022/11/27 04:47:42;;;;;;;11.20;5.90;;;6.30;92.80;;;;;;5092614;27;20498;-90
2022/11/27 04:50:08;;;;;;;12.33;6.30;;;6.20;92.60;;;;;;5092906;27;20391;-91
2022/11/27 04:52:34;;;;;;;13.13;6.32;;;6.20;92.60;;;;;;5093953;27;20510;-90
2022/11/27 04:54:59;;;;;;;14.90;6.70;;;6.30;92.60;;;;;;5091952;27;20471;-91
2022/11/27 04:57:25;;;;;;;13.15;6.85;;;6.30;92.80;;;;;;5094183;27;20410;-91
2022/11/27 04:59:50;;;;;;;13.27;6.40;;;6.30;92.50;;;;;;5091204;27;20399;-91
2022/11/27 05:02:16;;;;;;;13.75;6.35;;;6.30;92.40;;;;;;5094077;27;20498;-91
2022/11/27 05:04:42;;;;;;;16.87;6.23;;;6.30;92.50;;;;;;5091921;27;20418;-86
2022/11/27 05:07:07;;;;;;;14.57;6.47;;;6.30;92.20;;;;;;5093405;27;20420;-89
2022/11/27 05:09:33;;;;;;;13.65;5.60;;;6.30;92.40;;;;;;5109979;27;20418;-91
2022/11/27 05:11:58;;;;;;;12.37;5.30;;;6.30;92.10;;;;;;5091726;27;20391;-90
2022/11/27 05:14:28;;;;;;;12.57;5.43;;;6.40;92.00;;;;;;5093362;27;20476;-89
2022/11/27 05:16:55;;;;;;;14.63;5.15;;;6.40;91.90;;;;;;5108499;27;20431;-91
2022/11/27 05:19:23;;;;;;;14.98;5.57;;;6.40;91.60;;;;;;5110949;27;20918;-89
2022/11/27 05:21:49;;;;;;;11.20;5.07;;;6.50;91.90;;;;;;5091533;27;20749;-91
2022/11/27 05:24:16;;;;;;;13.60;5.35;;;6.40;91.60;;;;;;5093346;27;20757;-91
2022/11/27 05:26:42;;;;;;;12.68;5.65;;;6.60;91.70;;;;;;5109267;27;20402;-90
2022/11/27 05:29:09;;;;;;;11.82;5.35;;;6.50;91.60;;;;;;5109349;27;20419;-89
2022/11/27 05:31:35;;;;;;;12.18;5.32;;;6.40;91.50;;;;;;5092855;27;20405;-90
2022/11/27 05:34:01;;;;;;;11.88;5.10;;;6.50;91.40;;;;;;5108186;27;20509;-91
2022/11/27 05:36:27;;;;;;;10.32;4.70;;;6.50;91.30;;;;;;5111154;27;20617;-91
2022/11/27 05:38:53;;;;;;;11.90;5.00;;;6.50;91.10;;;;;;5090858;28;20410;-90
2022/11/27 05:41:18;;;;;;;12.17;4.57;;;6.50;91.30;;;;;;5110542;27;20413;-89
2022/11/27 05:43:44;;;;;;;10.35;4.20;;;6.50;91.20;;;;;;5108235;28;20916;-90
2022/11/27 05:46:13;;;;;;;11.00;4.15;;;6.50;91.00;;;;;;5092587;27;20448;-92
2022/11/27 05:48:38;;;;;;;9.80;4.20;;;6.50;90.80;;;;;;5092930;27;20518;-90
2022/11/27 05:51:05;;;;;;;12.35;4.80;;;6.60;91.00;;;;;;5108358;28;20430;-90
2022/11/27 05:53:31;;;;;;;11.13;3.90;;;6.60;91.00;;;;;;5110070;28;20403;-90
2022/11/27 05:56:09;;;;;;;9.85;4.32;;;6.60;90.90;;;;;;5090498;28;20398;-91
2022/11/27 05:58:35;;;;;;;9.88;4.07;;;6.60;90.70;;;;;;5093167;28;20399;-92
2022/11/27 06:01:01;;;;;;;8.60;4.10;;;6.60;90.90;;;;;;5108267;28;20478;-90
2022/11/27 06:03:26;;;;;;;10.77;3.95;;;6.60;90.50;;;;;;5092531;28;20477;-90
2022/11/27 06:05:52;;;;;;;9.80;3.63;;;6.60;90.40;;;;;;5109508;28;20395;-89
2022/11/27 06:08:19;;;;;;;10.65;4.18;;;6.80;90.50;;;;;;5091113;28;20435;-91
2022/11/27 06:10:45;;;;;;;8.73;3.47;;;6.60;90.50;;;;;;5093052;28;20434;-90
2022/11/27 06:13:11;;;;;;;10.13;3.60;;;6.60;90.30;;;;;;5090834;28;20410;-89
2022/11/27 06:15:38;;;;;;;9.27;3.70;;;6.60;90.30;;;;;;5092576;28;20482;-90
2022/11/27 06:18:04;;;;;;;10.90;4.05;;;6.70;90.30;;;;;;5089918;28;20434;-90
2022/11/27 06:20:30;;;;;;;8.35;3.47;;;6.60;90.20;;;;;;5090028;28;20471;-90
2022/11/27 06:22:56;;;;;;;8.93;3.80;;;6.70;90.30;;;;;;5098215;28;20431;-89
2022/11/27 06:25:23;;;;;;;10.65;3.92;;;6.70;90.20;;;;;;5104362;28;20810;-91
2022/11/27 06:27:48;;;;;;;9.48;3.67;;;6.70;90.30;;;;;;5088601;28;20910;-90
2022/11/27 06:30:15;;;;;;;9.73;3.75;;;6.60;90.10;;;;;;5085948;28;20408;-91
2022/11/27 06:32:40;;;;;;;8.52;3.78;;;6.60;90.00;;;;;;5084855;28;20413;-89
2022/11/27 06:35:07;;;;;;;12.10;3.90;;;6.60;90.00;;;;;;5065867;28;20426;-89
2022/11/27 06:37:35;;;;;;;9.02;3.22;;;6.70;90.00;;;;;;5068631;28;20398;-91
2022/11/27 06:40:01;;;;;;;10.93;3.97;;;6.60;90.00;;;;;;5083102;28;20402;-90
2022/11/27 06:42:30;;;;;;;9.32;3.78;;;6.70;90.20;;;;;;5068321;28;20394;-89
2022/11/27 06:44:57;;;;;;;10.00;3.90;;;6.60;90.10;;;;;;5084957;28;20471;-88
2022/11/27 06:47:23;;;;;;;9.23;3.47;;;6.70;90.20;;;;;;5066018;28;20390;-90
2022/11/27 06:49:48;;;;;;;8.40;3.35;;;6.70;89.70;;;;;;5090345;28;20404;-90
2022/11/27 06:52:14;;;;;;;9.90;3.60;;;6.60;90.20;;;;;;5088684;28;20908;-91
2022/11/27 06:54:40;;;;;;;10.13;3.58;;;6.80;89.80;;;;;;5072780;28;20426;-90
2022/11/27 06:57:05;;;;;;;11.13;3.90;;;6.70;89.60;;;;;;5101932;28;21503;-91
2022/11/27 06:59:31;;;;;;;9.50;3.90;;;6.70;90.20;;;;;;5105386;28;20496;-89
2022/11/27 07:01:57;;;;;;;8.18;3.45;;;6.70;90.10;;;;;;5088128;28;20397;-90
2022/11/27 07:04:22;;;;;;;7.93;3.10;;;6.60;90.00;;;;;;5087702;28;20423;-90
2022/11/27 07:06:48;;;;;;;9.00;3.90;;;6.50;90.00;;;;;;5087150;28;20475;-90
2022/11/27 07:09:14;;;;;;;11.18;4.05;;;6.60;90.20;;;;;;5073875;28;20413;-89
2022/11/27 07:11:40;;;;;;;9.57;3.90;;;6.50;90.50;;;;;;5088598;28;20399;-90
2022/11/27 07:14:06;;;;;;;8.45;3.25;;;6.50;90.40;;;;;;5069823;28;20954;-89
2022/11/27 07:16:34;;;;;;;8.73;3.77;;;6.50;90.80;;;;;;5088595;28;20402;-89
2022/11/27 07:19:05;;;;;;;8.10;3.35;;;6.40;90.20;;;;;;5070684;28;20492;-88
2022/11/27 07:21:31;;;;;;;10.77;3.60;;;6.40;90.80;;;;;;5071643;28;20398;-89
2022/11/27 07:23:57;;;;;;;8.68;3.70;;;6.40;90.80;;;;;;5071594;28;20418;-90
2022/11/27 07:26:25;;;;;;;8.95;3.13;;;6.40;91.10;;;;;;5076883;28;20398;-91
2022/11/27 07:28:52;;;;;;;8.27;3.47;;;6.40;90.60;;;;;;5072162;28;20410;-90
2022/11/27 07:31:20;;;;;;;8.37;3.70;;;6.40;91.10;;;;;;5069849;28;20737;-91
2022/11/27 07:33:46;;;;;;;8.43;3.63;;;6.40;91.00;;;;;;5071673;28;20437;-89
2022/11/27 07:36:20;;;;;;;8.88;3.80;;;6.40;90.70;;;;;;5070014;28;20402;-91
2022/11/27 07:38:47;;;;;;;9.05;3.65;;;6.40;90.90;;;;;;5071324;28;20489;-91
2022/11/27 07:41:13;;;;;;;9.03;3.17;;;6.40;90.60;;;;;;5071696;28;20655;-89
2022/11/27 07:43:39;;;;;;;8.48;3.38;;;6.50;90.70;;;;;;5069672;28;20451;-90
2022/11/27 07:46:09;;;;;;;8.70;3.88;;;6.50;90.80;;;;;;5071850;28;20417;-89
2022/11/27 07:48:35;;;;;;;8.02;3.30;;;6.50;90.80;;;;;;5069637;28;20410;-90
2022/11/27 07:51:00;;;;;;;9.98;3.95;;;6.50;90.70;;;;;;5099404;28;20400;-90
2022/11/27 07:53:26;;;;;;;6.63;3.20;;;6.60;90.70;;;;;;5090196;28;20392;-89
2022/11/27 07:55:52;;;;;;;8.98;3.13;;;6.60;90.60;;;;;;5091276;28;20412;-90
2022/11/27 07:58:17;;;;;;;9.82;3.63;;;6.60;90.30;;;;;;5107982;28;20396;-90
2022/11/27 08:00:43;;;;;;;9.70;4.23;;;6.80;90.80;;;;;;5090158;28;20441;-91
2022/11/27 08:03:09;;;;;;;9.48;3.60;;;6.60;90.60;;;;;;5091221;28;20472;-91
2022/11/27 08:05:36;;;;;;;8.60;3.45;;;6.60;90.40;;;;;;5106032;28;20392;-90
2022/11/27 08:08:03;;;;;;;10.93;3.90;;;6.60;90.20;;;;;;5091694;28;20882;-90
2022/11/27 08:10:37;;;;;;;9.50;3.70;;;6.60;90.30;;;;;;5089167;28;20407;-89
2022/11/27 08:13:03;;;;;;;8.23;3.40;;;6.70;90.30;;;;;;5091113;28;20953;-90
2022/11/27 08:15:28;;;;;;;8.90;3.70;;;6.70;90.00;;;;;;5089636;28;20901;-89
2022/11/27 08:17:54;;;;;;;8.20;3.43;;;6.70;89.90;;;;;;5090360;28;20459;-89
2022/11/27 08:20:20;;;;;;;8.80;3.80;;;6.70;89.90;;;;;;5107535;28;20408;-90
2022/11/27 08:22:46;;;;;;;11.20;4.50;;;6.70;89.80;;;;;;5106335;28;20505;-91
2022/11/27 08:25:11;;;;;;;10.20;3.70;;;6.60;90.50;;;;;;5091228;28;20851;-89
2022/11/27 08:27:37;;;;;;;8.50;4.00;;;6.50;90.80;;;;;;5106385;28;20491;-90
2022/11/27 08:30:04;;;;;;;10.45;4.07;;;6.40;91.30;;;;;;5108057;28;20401;-88
2022/11/27 08:32:30;;;;;;;9.70;4.18;;;6.40;91.30;;;;;;5105908;28;20413;-90
2022/11/27 08:34:55;;;;;;;9.07;3.87;;;6.40;91.70;;;;;;5089858;28;20424;-90
2022/11/27 08:37:21;;;;;;;11.20;4.67;;;6.40;91.50;;;;;;5090698;28;20408;-90
2022/11/27 08:39:46;;;;;;;10.95;4.53;;;6.50;91.50;;;;;;5087560;28;20813;-90
2022/11/27 08:42:12;;;;;;;9.07;4.70;;;6.50;91.50;;;;;;5099174;28;20415;-90
2022/11/27 08:44:38;;;;;;;9.57;4.80;;;6.50;91.50;;;;;;5105578;28;20401;-93
2022/11/27 08:47:03;;;;;;;10.45;4.20;;;6.50;91.70;;;;;;5091004;28;20940;-90
2022/11/27 08:49:29;;;;;;;11.07;4.23;;;6.50;91.20;;;;;;5088353;28;20420;-89
2022/11/27 08:51:54;;;;;;;11.77;4.80;;;6.50;91.40;;;;;;5090477;28;20488;-90
2022/11/27 08:54:20;;;;;;;14.88;5.10;;;6.50;91.60;;;;;;5089168;28;20489;-91
2022/11/27 08:56:46;;;;;;;8.37;4.50;;;6.50;91.50;;;;;;5107021;28;20427;-90
2022/11/27 08:59:11;;;;;;;12.40;4.82;;;6.50;91.50;;;;;;5090542;28;20872;-89
2022/11/27 09:01:37;;;;;;;11.60;4.80;;;6.50;91.80;;;;;;5088199;28;20417;-88
2022/11/27 09:04:03;;;;;;;10.20;4.80;;;6.40;91.50;;;;;;5090135;28;20865;-91
2022/11/27 09:06:32;;;;;;;11.82;5.18;;;6.40;92.00;;;;;;5087595;28;20524;-91
2022/11/27 09:08:59;;;;;;;11.75;5.82;;;6.30;92.30;;;;;;5090472;28;20428;-90
2022/11/27 09:11:26;;;;;;;12.40;5.68;;;6.30;92.70;;;;;;5088634;28;20805;-89
2022/11/27 09:13:52;;;;;;;13.32;5.90;;;6.30;92.80;;;;;;5106500;28;20432;-91
2022/11/27 09:16:19;;;;;;;12.15;6.07;;;6.30;93.10;;;;;;5089601;28;20416;-90
2022/11/27 09:18:47;;;;;;;12.00;5.60;;;6.20;93.10;;;;;;5105099;28;20810;-88
2022/11/27 09:21:14;;;;;;;11.40;5.50;;;6.20;93.40;;;;;;5089624;28;20436;-89
2022/11/27 09:23:40;;;;;;;9.52;5.80;;;6.10;93.50;;;;;;5104590;28;20396;-89
2022/11/27 09:26:12;;;;;;;11.85;5.78;;;6.20;93.70;;;;;;5089619;28;20857;-89
2022/11/27 09:28:38;;;;;;;14.02;6.78;;;6.10;93.60;;;;;;5087908;28;20821;-88
2022/11/27 09:31:06;;;;;;;11.57;7.20;;;6.10;93.80;;;;;;5086445;28;20414;-89
2022/11/27 09:33:33;;;;;;;15.52;7.03;;;6.10;93.90;;;;;;5094891;28;20432;-88
2022/11/27 09:36:04;;;;;;;15.52;6.88;;;6.20;93.80;;;;;;5083662;28;20439;-90
2022/11/27 09:38:29;;;;;;;15.43;7.45;;;6.10;93.90;;;;;;5094243;28;20470;-89
2022/11/27 09:41:04;;;;;;;14.30;7.22;;;6.10;94.20;;;;;;5079632;28;20437;-88
2022/11/27 09:43:35;;;;;;;13.35;7.47;;;6.10;94.00;;;;;;5094075;28;20411;-89
2022/11/27 09:46:07;;;;;;;18.63;8.85;;;6.20;94.10;;;;;;5107556;27;20409;-88
2022/11/27 09:48:38;;;;;;;16.27;8.80;;;6.20;94.00;;;;;;5081375;28;21057;-87
2022/11/27 09:51:12;;;;;;;19.52;9.52;;;6.10;94.10;;;;;;5097398;28;20413;-87
2022/11/27 09:53:46;;;;;;;17.48;9.23;;;6.10;94.40;;;;;;5087907;28;20754;-88
2022/11/27 09:56:15;;;;;;;16.50;9.55;;;6.20;94.50;;;;;;5084512;28;20400;-89
2022/11/27 09:58:46;;;;;;;18.10;8.50;;;6.20;94.40;;;;;;5097170;28;20429;-87
2022/11/27 10:01:17;;;;;;;16.95;9.10;;;6.20;94.30;;;;;;5092748;28;20402;-87
2022/11/27 10:03:44;;;;;;;17.55;8.00;;;6.20;94.30;;;;;;5089756;28;20414;-88
2022/11/27 10:06:27;;;;;;;16.15;7.78;;;6.10;94.20;;;;;;5098602;28;20843;-87
2022/11/27 10:09:05;;;;;;;16.65;8.07;;;6.20;94.20;;;;;;5099108;28;20417;-87
2022/11/27 10:11:42;;;;;;;16.60;8.20;;;6.20;94.30;;;;;;5080687;28;20432;-88
2022/11/27 10:14:19;;;;;;;15.43;8.05;;;6.20;94.40;;;;;;5091481;28;20434;-88
2022/11/27 10:17:01;;;;;;;13.57;8.10;;;6.20;94.30;;;;;;5097686;28;20556;-88
2022/11/27 10:19:57;;;;;;;16.30;8.35;;;6.20;94.20;;;;;;5081941;28;20447;-88
2022/11/27 10:22:34;;;;;;;18.30;9.13;;;6.20;94.30;;;;;;5084249;28;20438;-90
2022/11/27 10:25:15;;;;;;;18.65;8.65;;;6.50;94.40;;;;;;5080322;28;20485;-89
2022/11/27 10:28:01;;;;;;;16.88;8.52;;;6.30;94.30;;;;;;5087515;28;20414;-90
2022/11/27 10:30:30;;;;;;;16.17;8.05;;;6.30;94.30;;;;;;5077610;28;20437;-89
2022/11/27 10:32:58;;;;;;;14.43;8.00;;;6.40;94.10;;;;;;5090526;28;20815;-91
2022/11/27 10:35:27;;;;;;;15.20;7.85;;;6.40;94.10;;;;;;5085292;28;21055;-89
2022/11/27 10:38:10;;;;;;;14.63;7.28;;;6.40;94.20;;;;;;5081701;28;20417;-90
2022/11/27 10:40:47;;;;;;;16.40;7.80;;;6.40;94.00;;;;;;5089536;28;20411;-90
2022/11/27 10:43:19;;;;;;;15.70;7.82;;;6.40;94.20;;;;;;5096492;28;20472;-90
2022/11/27 10:45:56;;;;;;;17.67;8.40;;;6.50;94.20;;;;;;5086062;28;20961;-89
2022/11/27 10:48:22;;;;;;;17.17;8.85;;;6.50;94.20;;;;;;5098048;28;20402;-90
2022/11/27 10:50:49;;;;;;;15.23;8.55;;;6.50;94.40;;;;;;5088497;28;20388;-89
2022/11/27 10:53:23;;;;;;;17.50;9.18;;;6.50;94.10;;;;;;5096276;28;20512;-89
2022/11/27 10:56:10;;;;;;;18.25;10.40;;;6.50;94.10;;;;;;5086363;28;20486;-89
2022/11/27 10:58:40;;;;;;;16.13;9.45;;;6.50;94.40;;;;;;5071697;28;20404;-89
2022/11/27 11:01:09;;;;;;;20.60;10.35;;;6.50;94.20;;;;;;5100797;28;20418;-88
2022/11/27 11:03:35;;;;;;;22.08;10.98;;;6.60;94.40;;;;;;5069611;28;20410;-88
2022/11/27 11:06:12;;;;;;;19.55;10.70;;;6.60;94.50;;;;;;5071421;28;20414;-89
2022/11/27 11:08:38;;;;;;;16.98;10.52;;;6.60;94.40;;;;;;5087650;28;20420;-90
2022/11/27 11:11:06;;;;;;;18.70;10.17;;;6.60;94.30;;;;;;5088177;28;20764;-88
2022/11/27 11:13:38;;;;;;;19.03;10.10;;;6.60;94.20;;;;;;5089167;28;20402;-89
2022/11/27 11:16:31;;;;;;;20.27;9.93;;;6.60;94.30;;;;;;5069880;28;20908;-90
2022/11/27 11:19:00;;;;;;;20.63;10.65;;;6.60;94.30;;;;;;5080311;28;20402;-91
2022/11/27 11:21:31;;;;;;;18.48;10.35;;;6.50;94.30;;;;;;5099759;28;20747;-89
2022/11/27 11:24:03;;;;;;;21.45;11.27;;;6.60;94.30;;;;;;5087116;28;20491;-90
2022/11/27 11:26:30;;;;;;;21.08;11.43;;;6.70;94.40;;;;;;5088515;28;20496;-90
2022/11/27 11:28:58;;;;;;;19.47;10.77;;;6.60;94.30;;;;;;5075662;28;20981;-88
2022/11/27 11:31:39;;;;;;;21.05;10.65;;;6.70;94.40;;;;;;5096894;28;20412;-89
2022/11/27 11:34:16;;;;;;;17.90;10.13;;;6.70;94.40;;;;;;5087092;28;20914;-89
2022/11/27 11:37:12;;;;;;;19.38;10.40;;;6.70;94.10;;;;;;5077992;28;20755;-90
2022/11/27 11:39:43;;;;;;;18.10;10.18;;;6.70;94.40;;;;;;5089453;28;20447;-91
2022/11/27 11:42:17;;;;;;;21.88;11.40;;;6.60;93.90;;;;;;5093725;28;20448;-89
2022/11/27 11:45:01;;;;;;;20.23;10.93;;;6.70;94.10;;;;;;5108260;28;20921;-88
2022/11/27 11:47:26;;;;;;;17.92;10.32;;;6.70;94.20;;;;;;5088896;28;20388;-88
2022/11/27 11:49:53;;;;;;;19.80;11.13;;;6.70;94.00;;;;;;5090603;28;20411;-89
2022/11/27 11:52:38;;;;;;;17.93;9.77;;;6.70;94.00;;;;;;5107545;28;20538;-90
2022/11/27 11:55:24;;;;;;;21.50;11.73;;;6.70;94.00;;;;;;5104644;28;20468;-89
2022/11/27 11:58:18;;;;;;;23.02;12.20;;;6.70;94.10;;;;;;5091092;28;20823;-91
2022/11/27 12:00:47;;;;;;;18.52;9.93;;;6.80;94.30;;;;;;5107710;28;20491;-90
2022/11/27 12:03:36;;;;;;;18.25;10.23;;;6.90;94.00;;;;;;5089997;28;20443;-91
2022/11/27 12:06:42;;;;;;;19.43;10.77;;;7.00;94.10;;;;;;5108362;28;20397;-90
2022/11/27 12:09:35;;;;;;;17.98;10.32;;;6.90;94.00;;;;;;5106844;28;20898;-91
2022/11/27 12:12:09;;;;;;;15.93;9.63;;;7.00;93.90;;;;;;5089470;28;20411;-90
2022/11/27 12:14:35;;;;;;;16.35;9.32;;;7.00;93.60;;;;;;5090374;28;20979;-90
2022/11/27 12:17:28;;;;;;;17.30;10.25;;;6.90;93.40;;;;;;5105629;28;20436;-90
2022/11/27 12:20:23;;;;;;;16.97;10.60;;;6.90;93.60;;;;;;5090558;28;20437;-88
2022/11/27 12:23:31;;;;;;;17.55;10.70;;;7.00;93.80;;;;;;5090003;28;20471;-90
2022/11/27 12:26:36;;;;;;;18.55;10.60;;;6.90;93.80;;;;;;5088493;28;20447;-88
2022/11/27 12:29:20;;;;;;;19.58;11.00;;;7.00;93.80;;;;;;5105989;28;20408;-91
2022/11/27 12:31:48;;;;;;;15.80;10.63;;;7.00;93.70;;;;;;5108005;28;20408;-88
2022/11/27 12:34:51;;;;;;;17.80;10.35;;;6.90;93.80;;;;;;5087821;28;20774;-88
2022/11/27 12:37:27;;;;;;;17.83;10.43;;;6.90;93.80;;;;;;5089660;28;20885;-88
2022/11/27 12:39:58;;;;;;;21.38;11.05;;;6.90;94.00;;;;;;5107159;28;20417;-90
2022/11/27 12:42:35;;;;;;;20.77;11.57;;;6.90;94.10;;;;;;5088123;28;21001;-90
2022/11/27 12:45:24;;;;;;;20.92;10.50;;;7.00;94.10;;;;;;5099328;28;20409;-90
2022/11/27 12:47:59;;;;;;;18.23;10.93;;;7.00;94.00;;;;;;5084503;28;20472;-89
2022/11/27 12:50:41;;;;;;;18.65;10.77;;;7.00;94.00;;;;;;5068732;28;20451;-90
2022/11/27 12:53:15;;;;;;;17.85;11.70;;;7.00;94.00;;;;;;5086036;28;20410;-89
2022/11/27 12:55:52;;;;;;;22.33;11.80;;;7.00;94.00;;;;;;5083890;28;20905;-88
2022/11/27 12:58:40;;;;;;;18.95;10.73;;;6.90;93.90;;;;;;5069168;28;20406;-88
2022/11/27 13:01:33;;;;;;;18.67;11.07;;;6.90;93.80;;;;;;5084356;28;20398;-89
2022/11/27 13:04:10;;;;;;;18.02;10.73;;;7.00;93.90;;;;;;5080738;28;20857;-89
2022/11/27 13:06:57;;;;;;;19.45;10.90;;;6.90;93.80;;;;;;5086156;28;20413;-88